createdAt,value
2023-05-02T00:00:22.434Z,1.41
2023-05-02T00:01:22.459Z,1.53
2023-05-02T00:02:22.529Z,1.45
2023-05-02T00:03:22.570Z,1.50
2023-05-02T00:04:22.541Z,1.45
2023-05-02T00:05:22.493Z,1.44
2023-05-02T00:06:22.575Z,2.05
2023-05-02T00:07:22.529Z,1.49
2023-05-02T00:08:22.540Z,1.64
2023-05-02T00:09:22.601Z,1.57
2023-05-02T00:10:22.575Z,1.51
2023-05-02T00:11:22.582Z,1.65
2023-05-02T00:12:22.594Z,1.45
2023-05-02T00:13:22.654Z,1.49
2023-05-02T00:14:22.655Z,1.27
2023-05-02T00:15:22.654Z,1.40
2023-05-02T00:16:22.719Z,1.48
2023-05-02T00:17:22.807Z,1.26
2023-05-02T00:18:22.710Z,1.40
2023-05-02T00:19:22.722Z,1.77
2023-05-02T00:20:22.740Z,1.61
2023-05-02T00:21:22.763Z,1.68
2023-05-02T00:22:22.778Z,1.55
2023-05-02T00:23:22.789Z,1.76
2023-05-02T00:24:22.792Z,1.45
2023-05-02T00:25:22.813Z,1.51
2023-05-02T00:26:22.820Z,1.69
2023-05-02T00:27:22.833Z,1.21
2023-05-02T00:28:22.869Z,1.52
2023-05-02T00:29:22.896Z,1.33
2023-05-02T00:30:22.880Z,1.38
2023-05-02T00:31:22.926Z,1.44
2023-05-02T00:32:22.928Z,1.16
2023-05-02T00:33:22.905Z,1.31
2023-05-02T00:34:22.906Z,1.31
2023-05-02T00:35:22.917Z,1.58
2023-05-02T00:36:22.929Z,1.41
2023-05-02T00:37:22.929Z,1.54
2023-05-02T00:38:22.939Z,1.38
2023-05-02T00:39:22.942Z,1.71
2023-05-02T00:40:22.949Z,1.58
2023-05-02T00:41:22.965Z,1.41
2023-05-02T00:42:22.969Z,1.58
2023-05-02T00:43:22.978Z,1.80
2023-05-02T00:44:23.001Z,1.53
2023-05-02T00:45:23.029Z,1.31
2023-05-02T00:46:23.058Z,1.79
2023-05-02T00:47:23.024Z,1.49
2023-05-02T00:48:23.049Z,1.29
2023-05-02T00:49:23.069Z,1.28
2023-05-02T00:50:23.060Z,1.22
2023-05-02T00:51:23.072Z,1.28
2023-05-02T00:52:23.087Z,1.37
2023-05-02T00:53:23.129Z,0.86
2023-05-02T00:54:23.184Z,1.28
2023-05-02T00:55:23.226Z,1.40
2023-05-02T00:56:23.261Z,1.65
2023-05-02T00:57:23.282Z,1.75
2023-05-02T00:58:23.297Z,1.52
2023-05-02T00:59:23.327Z,1.40
2023-05-02T01:00:23.337Z,1.26
2023-05-02T01:01:23.525Z,1.50
2023-05-02T01:02:23.577Z,1.75
2023-05-02T01:03:23.496Z,1.32
2023-05-02T01:04:23.448Z,1.17
2023-05-02T01:05:23.441Z,1.20
2023-05-02T01:06:23.504Z,1.43
2023-05-02T01:07:23.492Z,1.36
2023-05-02T01:08:23.510Z,1.45
2023-05-02T01:09:23.546Z,1.45
2023-05-02T01:10:23.547Z,1.32
2023-05-02T01:11:23.564Z,1.18
2023-05-02T01:12:23.581Z,1.35
2023-05-02T01:13:23.598Z,1.37
2023-05-02T01:14:23.623Z,1.44
2023-05-02T01:15:23.641Z,1.28
2023-05-02T01:16:23.715Z,1.36
2023-05-02T01:17:23.737Z,1.35
2023-05-02T01:18:24.081Z,1.29
2023-05-02T01:19:24.130Z,1.53
2023-05-02T01:20:24.156Z,1.45
2023-05-02T01:21:24.126Z,1.33
2023-05-02T01:22:24.130Z,1.31
2023-05-02T01:23:24.127Z,1.40
2023-05-02T01:24:24.120Z,1.13
2023-05-02T01:25:24.122Z,1.49
2023-05-02T01:26:24.123Z,1.24
2023-05-02T01:27:24.115Z,1.35
2023-05-02T01:28:24.112Z,1.28
2023-05-02T01:29:24.121Z,1.52
2023-05-02T01:30:24.118Z,1.18
2023-05-02T01:31:24.137Z,1.41
2023-05-02T01:32:24.112Z,1.44
2023-05-02T01:33:24.249Z,1.27
2023-05-02T01:34:24.141Z,1.31
2023-05-02T01:35:24.168Z,1.30
2023-05-02T01:36:24.175Z,1.43
2023-05-02T01:37:24.195Z,1.28
2023-05-02T01:38:24.225Z,1.20
2023-05-02T01:39:24.247Z,1.17
2023-05-02T01:40:24.265Z,1.47
2023-05-02T01:41:24.289Z,1.58
2023-05-02T01:42:24.307Z,1.46
2023-05-02T01:43:24.320Z,1.41
2023-05-02T01:44:24.369Z,1.48
2023-05-02T01:45:24.377Z,1.29
2023-05-02T01:46:24.416Z,1.30
2023-05-02T01:47:24.437Z,1.47
2023-05-02T01:48:24.440Z,1.35
2023-05-02T01:49:24.465Z,1.40
2023-05-02T01:50:24.465Z,1.28
2023-05-02T01:51:24.493Z,1.06
2023-05-02T01:52:24.512Z,1.34
2023-05-02T01:53:24.531Z,1.13
2023-05-02T01:54:24.554Z,1.78
2023-05-02T01:55:24.589Z,1.41
2023-05-02T01:56:24.596Z,1.54
2023-05-02T01:57:24.968Z,1.00
2023-05-02T01:58:25.009Z,1.19
2023-05-02T01:59:25.016Z,1.40
2023-05-02T02:00:25.009Z,1.13
2023-05-02T02:01:25.053Z,1.22
2023-05-02T02:02:25.018Z,1.25
2023-05-02T02:03:25.079Z,1.37
2023-05-02T02:04:25.041Z,1.29
2023-05-02T02:05:25.048Z,1.22
2023-05-02T02:06:25.040Z,1.27
2023-05-02T02:07:25.024Z,1.27
2023-05-02T02:08:25.010Z,1.36
2023-05-02T02:09:25.007Z,1.30
2023-05-02T02:10:25.011Z,1.11
2023-05-02T02:11:25.026Z,1.15
2023-05-02T02:12:25.016Z,1.10
2023-05-02T02:13:25.014Z,1.21
2023-05-02T02:14:25.058Z,1.35
2023-05-02T02:15:25.023Z,1.36
2023-05-02T02:16:25.091Z,1.24
2023-05-02T02:17:25.130Z,1.56
2023-05-02T02:18:25.085Z,1.08
2023-05-02T02:19:25.121Z,1.36
2023-05-02T02:20:25.143Z,0.87
2023-05-02T02:21:25.216Z,1.19
2023-05-02T02:22:25.200Z,1.30
2023-05-02T02:23:25.217Z,1.39
2023-05-02T02:24:25.241Z,1.22
2023-05-02T02:25:25.264Z,1.28
2023-05-02T02:26:25.288Z,1.35
2023-05-02T02:27:25.315Z,1.25
2023-05-02T02:28:25.339Z,1.13
2023-05-02T02:29:25.376Z,1.12
2023-05-02T02:30:25.394Z,1.00
2023-05-02T02:31:25.440Z,1.29
2023-05-02T02:32:25.467Z,0.93
2023-05-02T02:33:25.446Z,1.40
2023-05-02T02:34:25.468Z,1.33
2023-05-02T02:35:25.499Z,1.15
2023-05-02T02:36:25.533Z,1.11
2023-05-02T02:37:25.571Z,1.35
2023-05-02T02:38:25.557Z,1.01
2023-05-02T02:39:25.570Z,1.23
2023-05-02T02:40:25.603Z,1.33
2023-05-02T02:41:25.624Z,1.21
2023-05-02T02:42:25.648Z,1.26
2023-05-02T02:43:25.674Z,1.09
2023-05-02T02:44:25.700Z,1.26
2023-05-02T02:45:25.714Z,1.14
2023-05-02T02:46:25.812Z,1.27
2023-05-02T02:47:25.761Z,1.21
2023-05-02T02:48:25.776Z,1.45
2023-05-02T02:49:25.806Z,1.37
2023-05-02T02:50:25.831Z,1.29
2023-05-02T02:51:25.853Z,1.49
2023-05-02T02:52:25.881Z,1.00
2023-05-02T02:53:25.930Z,1.62
2023-05-02T02:54:27.427Z,1.09
2023-05-02T02:55:26.146Z,1.10
2023-05-02T02:56:26.174Z,1.09
2023-05-02T02:57:26.192Z,1.07
2023-05-02T02:58:26.284Z,1.12
2023-05-02T02:59:26.238Z,1.05
2023-05-02T03:00:26.254Z,1.08
2023-05-02T03:01:26.309Z,1.27
2023-05-02T03:02:26.301Z,1.25
2023-05-02T03:03:26.462Z,1.44
2023-05-02T03:04:26.358Z,1.15
2023-05-02T03:05:26.404Z,1.09
2023-05-02T03:06:26.496Z,1.25
2023-05-02T03:07:26.424Z,1.23
2023-05-02T03:08:26.459Z,1.30
2023-05-02T03:09:26.487Z,1.14
2023-05-02T03:10:26.483Z,1.00
2023-05-02T03:11:28.332Z,1.08
2023-05-02T03:12:26.503Z,1.37
2023-05-02T03:13:26.518Z,1.09
2023-05-02T03:14:26.521Z,0.93
2023-05-02T03:15:26.529Z,1.39
2023-05-02T03:16:26.543Z,1.39
2023-05-02T03:17:26.555Z,1.09
2023-05-02T03:18:26.546Z,1.10
2023-05-02T03:19:26.558Z,1.20
2023-05-02T03:20:26.561Z,1.31
2023-05-02T03:21:26.571Z,1.03
2023-05-02T03:22:27.557Z,0.96
2023-05-02T03:23:26.602Z,1.15
2023-05-02T03:24:26.604Z,0.93
2023-05-02T03:25:26.748Z,1.16
2023-05-02T03:26:26.630Z,0.93
2023-05-02T03:27:26.649Z,1.16
2023-05-02T03:28:26.635Z,0.96
2023-05-02T03:29:26.652Z,1.11
2023-05-02T03:30:26.650Z,1.10
2023-05-02T03:31:27.006Z,1.23
2023-05-02T03:32:26.745Z,1.51
2023-05-02T03:33:26.690Z,1.03
2023-05-02T03:34:26.689Z,1.09
2023-05-02T03:35:26.691Z,1.05
2023-05-02T03:36:26.705Z,1.19
2023-05-02T03:37:26.718Z,0.98
2023-05-02T03:38:26.709Z,0.84
2023-05-02T03:39:26.725Z,0.98
2023-05-02T03:40:26.719Z,1.14
2023-05-02T03:41:26.764Z,1.00
2023-05-02T03:42:26.742Z,1.03
2023-05-02T03:43:26.739Z,1.25
2023-05-02T03:44:26.749Z,1.23
2023-05-02T03:45:26.767Z,1.03
2023-05-02T03:46:26.805Z,1.03
2023-05-02T03:47:26.814Z,1.10
2023-05-02T03:48:26.791Z,1.02
2023-05-02T03:49:26.794Z,0.94
2023-05-02T03:50:26.809Z,1.15
2023-05-02T03:51:26.817Z,0.99
2023-05-02T03:52:26.846Z,1.23
2023-05-02T03:53:26.868Z,1.15
2023-05-02T03:54:26.902Z,0.99
2023-05-02T03:55:26.933Z,0.87
2023-05-02T03:56:26.965Z,0.99
2023-05-02T03:57:27.008Z,1.12
2023-05-02T03:58:27.002Z,1.42
2023-05-02T03:59:27.023Z,0.87
2023-05-02T04:00:27.071Z,0.91
2023-05-02T04:01:27.081Z,1.12
2023-05-02T04:02:27.193Z,0.95
2023-05-02T04:03:29.307Z,0.95
2023-05-02T04:04:27.169Z,1.16
2023-05-02T04:05:27.166Z,0.98
2023-05-02T04:06:27.176Z,1.26
2023-05-02T04:07:27.178Z,0.80
2023-05-02T04:08:27.187Z,0.79
2023-05-02T04:09:27.195Z,0.91
2023-05-02T04:10:27.210Z,0.88
2023-05-02T04:11:27.222Z,0.82
2023-05-02T04:12:27.226Z,0.95
2023-05-02T04:13:27.264Z,0.90
2023-05-02T04:14:27.246Z,0.90
2023-05-02T04:15:27.257Z,0.78
2023-05-02T04:16:27.342Z,1.00
2023-05-02T04:17:27.340Z,0.73
2023-05-02T04:18:27.291Z,1.00
2023-05-02T04:19:27.288Z,0.91
2023-05-02T04:20:27.331Z,0.97
2023-05-02T04:21:27.325Z,1.12
2023-05-02T04:22:27.326Z,1.09
2023-05-02T04:23:27.346Z,1.01
2023-05-02T04:24:27.348Z,0.95
2023-05-02T04:25:27.367Z,1.11
2023-05-02T04:26:27.403Z,0.80
2023-05-02T04:27:27.387Z,0.96
2023-05-02T04:28:27.403Z,0.91
2023-05-02T04:29:27.448Z,0.97
2023-05-02T04:30:27.432Z,1.10
2023-05-02T04:31:27.506Z,1.21
2023-05-02T04:32:27.476Z,1.10
2023-05-02T04:33:27.478Z,0.93
2023-05-02T04:34:27.498Z,1.01
2023-05-02T04:35:27.519Z,1.17
2023-05-02T04:36:27.531Z,1.19
2023-05-02T04:37:27.547Z,1.01
2023-05-02T04:38:27.562Z,1.29
2023-05-02T04:39:27.571Z,1.06
2023-05-02T04:40:27.588Z,1.13
2023-05-02T04:41:27.601Z,1.01
2023-05-02T04:42:27.627Z,0.98
2023-05-02T04:43:27.623Z,0.80
2023-05-02T04:44:27.646Z,0.82
2023-05-02T04:45:27.699Z,1.07
2023-05-02T04:46:27.722Z,0.82
2023-05-02T04:47:27.723Z,0.81
2023-05-02T04:48:27.713Z,0.88
2023-05-02T04:49:27.714Z,0.72
2023-05-02T04:50:27.731Z,0.99
2023-05-02T04:51:28.590Z,0.99
2023-05-02T04:52:27.760Z,1.09
2023-05-02T04:53:27.769Z,1.14
2023-05-02T04:54:27.788Z,0.94
2023-05-02T04:55:27.804Z,0.76
2023-05-02T04:56:27.821Z,0.75
2023-05-02T04:57:27.829Z,0.91
2023-05-02T04:58:27.847Z,1.22
2023-05-02T04:59:27.851Z,0.99
2023-05-02T05:00:27.859Z,0.94
2023-05-02T05:01:28.036Z,0.87
2023-05-02T05:02:28.014Z,0.81
2023-05-02T05:03:28.016Z,1.06
2023-05-02T05:04:27.937Z,0.90
2023-05-02T05:05:27.980Z,0.84
2023-05-02T05:06:27.941Z,0.90
2023-05-02T05:07:28.103Z,0.99
2023-05-02T05:08:27.949Z,0.97
2023-05-02T05:09:27.948Z,1.17
2023-05-02T05:10:27.961Z,0.70
2023-05-02T05:11:27.960Z,0.95
2023-05-02T05:12:27.973Z,0.90
2023-05-02T05:13:27.982Z,0.83
2023-05-02T05:14:28.104Z,0.91
2023-05-02T05:15:28.005Z,0.88
2023-05-02T05:16:28.029Z,0.91
2023-05-02T05:17:28.102Z,0.90
2023-05-02T05:18:28.050Z,1.02
2023-05-02T05:19:28.075Z,1.11
2023-05-02T05:20:28.123Z,0.86
2023-05-02T05:21:28.080Z,0.88
2023-05-02T05:22:28.084Z,1.08
2023-05-02T05:23:28.120Z,1.00
2023-05-02T05:24:28.135Z,1.15
2023-05-02T05:25:28.637Z,1.00
2023-05-02T05:26:28.126Z,0.87
2023-05-02T05:27:28.606Z,1.03
2023-05-02T05:28:28.205Z,1.15
2023-05-02T05:29:28.232Z,0.90
2023-05-02T05:30:28.274Z,0.88
2023-05-02T05:31:28.374Z,1.10
2023-05-02T05:32:28.692Z,1.06
2023-05-02T05:33:28.537Z,1.10
2023-05-02T05:34:28.354Z,0.86
2023-05-02T05:35:28.610Z,1.00
2023-05-02T05:36:28.427Z,0.99
2023-05-02T05:37:28.625Z,1.07
2023-05-02T05:38:29.108Z,1.01
2023-05-02T05:39:28.480Z,1.12
2023-05-02T05:40:28.886Z,1.03
2023-05-02T05:41:28.546Z,0.85
2023-05-02T05:42:28.629Z,0.82
2023-05-02T05:43:28.616Z,0.98
2023-05-02T05:44:28.648Z,0.76
2023-05-02T05:45:28.624Z,0.96
2023-05-02T05:46:29.697Z,1.17
2023-05-02T05:47:29.253Z,0.83
2023-05-02T05:48:28.742Z,0.91
2023-05-02T05:49:30.138Z,0.74
2023-05-02T05:50:28.772Z,1.32
2023-05-02T05:51:29.353Z,0.84
2023-05-02T05:52:28.816Z,1.17
2023-05-02T05:53:28.834Z,0.97
2023-05-02T05:54:29.152Z,0.89
2023-05-02T05:55:28.903Z,1.14
2023-05-02T05:56:28.951Z,0.90
2023-05-02T05:57:29.372Z,0.94
2023-05-02T05:58:28.914Z,1.03
2023-05-02T05:59:29.010Z,0.83
2023-05-02T06:00:28.973Z,1.56
2023-05-02T06:01:28.982Z,1.42
2023-05-02T06:02:29.301Z,1.30
2023-05-02T06:03:29.235Z,1.33
2023-05-02T06:04:29.178Z,0.95
2023-05-02T06:05:29.250Z,0.96
2023-05-02T06:06:36.800Z,1.21
2023-05-02T06:07:29.280Z,1.29
2023-05-02T06:08:29.266Z,1.04
2023-05-02T06:09:29.277Z,1.17
2023-05-02T06:10:29.319Z,1.48
2023-05-02T06:11:29.314Z,1.12
2023-05-02T06:12:29.687Z,1.36
2023-05-02T06:13:29.297Z,1.22
2023-05-02T06:14:29.311Z,1.50
2023-05-02T06:15:30.302Z,1.02
2023-05-02T06:16:29.369Z,1.01
2023-05-02T06:17:29.698Z,1.15
2023-05-02T06:18:29.284Z,1.28
2023-05-02T06:19:29.283Z,1.33
2023-05-02T06:20:29.635Z,1.43
2023-05-02T06:21:29.313Z,1.77
2023-05-02T06:22:29.281Z,1.66
2023-05-02T06:23:29.637Z,1.18
2023-05-02T06:24:29.340Z,1.34
2023-05-02T06:25:29.417Z,1.53
2023-05-02T06:26:29.653Z,1.11
2023-05-02T06:27:31.088Z,1.15
2023-05-02T06:28:29.471Z,1.21
2023-05-02T06:29:29.473Z,1.55
2023-05-02T06:30:29.641Z,1.37
2023-05-02T06:31:30.299Z,1.35
2023-05-02T06:32:29.491Z,1.74
2023-05-02T06:33:29.474Z,1.41
2023-05-02T06:34:29.454Z,1.51
2023-05-02T06:35:29.636Z,1.72
2023-05-02T06:36:29.453Z,1.33
2023-05-02T06:37:29.482Z,1.30
2023-05-02T06:38:29.437Z,1.38
2023-05-02T06:39:29.415Z,1.63
2023-05-02T06:40:29.414Z,1.45
2023-05-02T06:41:29.412Z,1.58
2023-05-02T06:42:29.639Z,1.47
2023-05-02T06:43:29.392Z,1.92
2023-05-02T06:44:29.648Z,1.63
2023-05-02T06:45:29.376Z,1.24
2023-05-02T06:46:29.382Z,1.76
2023-05-02T06:47:29.667Z,1.60
2023-05-02T06:48:29.347Z,1.62
2023-05-02T06:49:29.662Z,2.10
2023-05-02T06:50:29.338Z,1.82
2023-05-02T06:51:29.332Z,1.79
2023-05-02T06:52:29.356Z,1.64
2023-05-02T06:53:32.370Z,1.54
2023-05-02T06:54:29.352Z,2.04
2023-05-02T06:55:29.330Z,2.22
2023-05-02T06:56:29.329Z,2.33
2023-05-02T06:57:29.338Z,1.89
2023-05-02T06:58:29.644Z,1.84
2023-05-02T06:59:29.297Z,1.90
2023-05-02T07:00:29.291Z,2.04
2023-05-02T07:01:29.316Z,2.26
2023-05-02T07:02:29.318Z,1.69
2023-05-02T07:03:29.653Z,1.86
2023-05-02T07:04:29.667Z,1.57
2023-05-02T07:05:29.244Z,1.42
2023-05-02T07:06:29.300Z,1.73
2023-05-02T07:07:29.230Z,1.58
2023-05-02T07:08:29.212Z,2.08
2023-05-02T07:09:29.700Z,1.74
2023-05-02T07:10:29.204Z,1.71
2023-05-02T07:11:29.188Z,2.36
2023-05-02T07:12:29.670Z,1.95
2023-05-02T07:13:29.182Z,2.06
2023-05-02T07:14:29.647Z,1.43
2023-05-02T07:15:29.173Z,1.85
2023-05-02T07:16:29.217Z,1.93
2023-05-02T07:17:29.695Z,1.81
2023-05-02T07:18:29.148Z,1.88
2023-05-02T07:19:29.129Z,1.89
2023-05-02T07:20:29.124Z,1.64
2023-05-02T07:21:29.124Z,1.91
2023-05-02T07:22:29.235Z,1.72
2023-05-02T07:23:30.216Z,2.05
2023-05-02T07:24:29.153Z,2.21
2023-05-02T07:25:29.698Z,2.18
2023-05-02T07:26:31.181Z,2.24
2023-05-02T07:27:29.686Z,1.97
2023-05-02T07:28:29.179Z,2.08
2023-05-02T07:29:29.159Z,2.07
2023-05-02T07:30:29.172Z,2.51
2023-05-02T07:31:29.601Z,2.20
2023-05-02T07:32:29.296Z,2.05
2023-05-02T07:33:29.231Z,1.60
2023-05-02T07:34:29.089Z,2.37
2023-05-02T07:35:29.197Z,1.99
2023-05-02T07:36:29.072Z,2.02
2023-05-02T07:37:29.197Z,1.91
2023-05-02T07:38:29.068Z,2.39
2023-05-02T07:39:29.051Z,2.04
2023-05-02T07:40:28.966Z,2.22
2023-05-02T07:41:29.753Z,2.06
2023-05-02T07:42:29.262Z,1.82
2023-05-02T07:43:29.113Z,2.02
2023-05-02T07:44:29.152Z,1.70
2023-05-02T07:45:29.205Z,1.19
2023-05-02T07:46:28.946Z,1.68
2023-05-02T07:47:28.932Z,1.86
2023-05-02T07:48:29.201Z,1.72
2023-05-02T07:49:28.998Z,1.44
2023-05-02T07:50:29.061Z,1.76
2023-05-02T07:51:29.102Z,1.31
2023-05-02T07:52:29.173Z,1.46
2023-05-02T07:53:29.710Z,1.55
2023-05-02T07:54:29.413Z,1.42
2023-05-02T07:55:29.469Z,1.77
2023-05-02T07:56:29.530Z,1.17
2023-05-02T07:57:29.650Z,1.76
2023-05-02T07:58:29.665Z,1.53
2023-05-02T07:59:30.213Z,1.13
2023-05-02T08:00:29.732Z,1.48
2023-05-02T08:01:29.772Z,1.51
2023-05-02T08:02:30.192Z,1.69
2023-05-02T08:03:30.298Z,1.59
2023-05-02T08:04:30.223Z,1.67
2023-05-02T08:05:30.224Z,1.64
2023-05-02T08:06:30.114Z,1.41
2023-05-02T08:07:30.221Z,1.30
2023-05-02T08:08:30.150Z,1.69
2023-05-02T08:09:30.206Z,1.63
2023-05-02T08:10:30.673Z,1.05
2023-05-02T08:11:30.289Z,1.47
2023-05-02T08:12:30.355Z,1.23
2023-05-02T08:13:30.411Z,1.44
2023-05-02T08:14:30.434Z,1.24
2023-05-02T08:15:30.686Z,1.22
2023-05-02T08:16:30.567Z,1.28
2023-05-02T08:17:30.535Z,1.22
2023-05-02T08:18:30.572Z,1.30
2023-05-02T08:19:30.674Z,3.36
2023-05-02T08:20:30.678Z,1.67
2023-05-02T08:21:30.743Z,1.08
2023-05-02T08:22:30.820Z,1.64
2023-05-02T08:23:30.791Z,1.23
2023-05-02T08:24:31.151Z,1.56
2023-05-02T08:25:31.232Z,1.43
2023-05-02T08:26:31.107Z,1.27
2023-05-02T08:27:31.685Z,1.30
2023-05-02T08:28:31.229Z,1.34
2023-05-02T08:29:31.247Z,1.40
2023-05-02T08:30:31.221Z,1.35
2023-05-02T08:31:31.733Z,1.42
2023-05-02T08:32:31.252Z,1.34
2023-05-02T08:33:31.845Z,1.52
2023-05-02T08:34:31.293Z,1.51
2023-05-02T08:35:31.279Z,1.64
2023-05-02T08:36:31.314Z,1.78
2023-05-02T08:37:31.708Z,1.64
2023-05-02T08:38:31.392Z,1.24
2023-05-02T08:39:31.425Z,1.35
2023-05-02T08:40:41.469Z,1.42
2023-05-02T08:41:31.475Z,1.52
2023-05-02T08:42:31.460Z,1.54
2023-05-02T08:43:31.474Z,1.47
2023-05-02T08:44:31.701Z,1.37
2023-05-02T08:45:31.477Z,1.57
2023-05-02T08:46:31.524Z,1.57
2023-05-02T08:47:31.502Z,1.56
2023-05-02T08:48:31.441Z,1.63
2023-05-02T08:49:31.685Z,1.75
2023-05-02T08:50:31.438Z,1.85
2023-05-02T08:51:32.198Z,2.00
2023-05-02T08:52:31.427Z,1.78
2023-05-02T08:53:31.461Z,1.99
2023-05-02T08:54:31.437Z,2.08
2023-05-02T08:55:31.696Z,1.54
2023-05-02T08:56:31.433Z,1.54
2023-05-02T08:57:31.436Z,2.09
2023-05-02T08:58:31.692Z,1.64
2023-05-02T08:59:31.418Z,1.57
2023-05-02T09:00:31.428Z,1.62
2023-05-02T09:01:31.512Z,1.43
2023-05-02T09:02:31.459Z,1.41
2023-05-02T09:03:31.741Z,1.54
2023-05-02T09:04:31.421Z,1.89
2023-05-02T09:05:31.696Z,1.37
2023-05-02T09:06:31.410Z,1.64
2023-05-02T09:07:31.376Z,1.70
2023-05-02T09:08:31.696Z,1.64
2023-05-02T09:09:31.332Z,1.41
2023-05-02T09:10:31.322Z,1.44
2023-05-02T09:11:31.694Z,1.32
2023-05-02T09:12:31.288Z,1.38
2023-05-02T09:13:31.329Z,1.61
2023-05-02T09:14:31.323Z,1.55
2023-05-02T09:15:31.694Z,1.58
2023-05-02T09:16:31.420Z,1.53
2023-05-02T09:17:31.486Z,1.67
2023-05-02T09:18:31.463Z,1.27
2023-05-02T09:19:31.693Z,1.48
2023-05-02T09:20:31.695Z,1.87
2023-05-02T09:21:31.602Z,1.88
2023-05-02T09:22:31.624Z,1.53
2023-05-02T09:23:31.658Z,1.68
2023-05-02T09:24:32.211Z,1.33
2023-05-02T09:25:32.223Z,1.67
2023-05-02T09:26:32.076Z,1.51
2023-05-02T09:27:31.813Z,1.46
2023-05-02T09:28:32.223Z,1.62
2023-05-02T09:29:31.827Z,1.83
2023-05-02T09:30:32.244Z,1.66
2023-05-02T09:31:54.147Z,1.73
2023-05-02T09:32:32.011Z,1.63
2023-05-02T09:33:31.889Z,2.13
2023-05-02T09:34:31.858Z,1.81
2023-05-02T09:35:32.209Z,2.42
2023-05-02T09:36:32.230Z,1.95
2023-05-02T09:37:31.751Z,1.96
2023-05-02T09:38:31.727Z,2.60
2023-05-02T09:39:32.282Z,2.12
2023-05-02T09:40:31.674Z,1.93
2023-05-02T09:41:31.662Z,1.75
2023-05-02T09:42:31.642Z,1.64
2023-05-02T09:43:31.703Z,1.69
2023-05-02T09:44:32.822Z,1.66
2023-05-02T09:45:31.701Z,1.88
2023-05-02T09:46:31.786Z,1.81
2023-05-02T09:47:31.818Z,1.66
2023-05-02T09:48:31.822Z,1.61
2023-05-02T09:49:32.018Z,1.84
2023-05-02T09:50:32.376Z,1.64
2023-05-02T09:51:31.935Z,1.91
2023-05-02T09:52:31.975Z,1.87
2023-05-02T09:53:32.204Z,1.84
2023-05-02T09:54:32.016Z,2.06
2023-05-02T09:55:32.028Z,1.74
2023-05-02T09:56:32.027Z,1.85
2023-05-02T09:57:32.270Z,1.69
2023-05-02T09:58:32.270Z,1.85
2023-05-02T09:59:32.288Z,1.76
2023-05-02T10:00:32.710Z,1.78
2023-05-02T10:01:32.266Z,1.74
2023-05-02T10:02:32.074Z,2.25
2023-05-02T10:03:32.263Z,1.71
2023-05-02T10:04:32.225Z,1.69
2023-05-02T10:05:32.042Z,2.09
2023-05-02T10:06:32.027Z,1.70
2023-05-02T10:07:32.006Z,1.66
2023-05-02T10:08:32.214Z,1.94
2023-05-02T10:09:32.022Z,1.53
2023-05-02T10:10:32.045Z,1.64
2023-05-02T10:11:31.996Z,1.79
2023-05-02T10:12:31.991Z,1.69
2023-05-02T10:13:32.217Z,1.89
2023-05-02T10:14:32.227Z,1.69
2023-05-02T10:15:32.063Z,1.40
2023-05-02T10:16:32.127Z,1.70
2023-05-02T10:17:33.055Z,1.48
2023-05-02T10:18:32.219Z,1.76
2023-05-02T10:19:32.249Z,1.77
2023-05-02T10:20:32.037Z,1.73
2023-05-02T10:21:32.246Z,1.74
2023-05-02T10:22:32.045Z,1.82
2023-05-02T10:23:32.228Z,2.01
2023-05-02T10:24:32.053Z,1.57
2023-05-02T10:25:32.101Z,1.87
2023-05-02T10:26:32.052Z,1.56
2023-05-02T10:27:32.585Z,1.91
2023-05-02T10:28:32.223Z,1.67
2023-05-02T10:29:32.101Z,1.79
2023-05-02T10:30:32.258Z,1.77
2023-05-02T10:31:32.178Z,1.79
2023-05-02T10:32:32.164Z,1.87
2023-05-02T10:33:32.152Z,2.16
2023-05-02T10:34:32.150Z,1.69
2023-05-02T10:35:32.172Z,1.71
2023-05-02T10:36:32.223Z,1.75
2023-05-02T10:37:32.235Z,1.55
2023-05-02T10:38:32.232Z,1.77
2023-05-02T10:39:32.236Z,1.84
2023-05-02T10:40:33.292Z,1.40
2023-05-02T10:41:32.726Z,1.41
2023-05-02T10:42:32.282Z,1.71
2023-05-02T10:43:32.304Z,1.38
2023-05-02T10:44:32.734Z,2.01
2023-05-02T10:45:32.325Z,2.04
2023-05-02T10:46:32.757Z,1.64
2023-05-02T10:47:32.417Z,1.46
2023-05-02T10:48:32.726Z,1.72
2023-05-02T10:49:32.410Z,1.68
2023-05-02T10:50:33.231Z,1.52
2023-05-02T10:51:32.745Z,1.47
2023-05-02T10:52:32.505Z,1.64
2023-05-02T10:53:32.759Z,1.90
2023-05-02T10:54:32.541Z,2.01
2023-05-02T10:55:32.569Z,1.42
2023-05-02T10:56:32.733Z,1.79
2023-05-02T10:57:32.601Z,1.72
2023-05-02T10:58:32.624Z,1.76
2023-05-02T10:59:32.653Z,1.50
2023-05-02T11:00:32.738Z,1.50
2023-05-02T11:01:33.109Z,1.52
2023-05-02T11:02:33.292Z,1.80
2023-05-02T11:03:32.821Z,1.52
2023-05-02T11:04:32.786Z,1.60
2023-05-02T11:05:32.808Z,1.32
2023-05-02T11:06:33.348Z,2.05
2023-05-02T11:07:32.856Z,1.75
2023-05-02T11:08:32.892Z,1.66
2023-05-02T11:09:33.283Z,1.30
2023-05-02T11:10:33.747Z,1.46
2023-05-02T11:11:33.309Z,1.99
2023-05-02T11:12:33.499Z,1.91
2023-05-02T11:13:33.740Z,1.76
2023-05-02T11:14:33.274Z,1.55
2023-05-02T11:15:33.095Z,1.57
2023-05-02T11:16:33.158Z,1.56
2023-05-02T11:17:33.188Z,1.87
2023-05-02T11:18:33.257Z,1.86
2023-05-02T11:19:33.270Z,1.67
2023-05-02T11:20:33.234Z,1.97
2023-05-02T11:21:33.743Z,1.81
2023-05-02T11:22:33.302Z,2.02
2023-05-02T11:23:33.763Z,2.17
2023-05-02T11:24:33.753Z,2.09
2023-05-02T11:25:33.762Z,1.78
2023-05-02T11:26:33.409Z,2.00
2023-05-02T11:27:33.569Z,2.03
2023-05-02T11:28:33.744Z,1.90
2023-05-02T11:29:33.499Z,1.63
2023-05-02T11:30:33.752Z,1.79
2023-05-02T11:31:33.588Z,1.81
2023-05-02T11:32:33.674Z,2.03
2023-05-02T11:33:33.744Z,2.06
2023-05-02T11:34:33.650Z,1.55
2023-05-02T11:35:33.681Z,1.98
2023-05-02T11:36:34.009Z,2.09
2023-05-02T11:37:33.775Z,2.08
2023-05-02T11:38:34.246Z,2.06
2023-05-02T11:39:33.839Z,1.97
2023-05-02T11:40:33.877Z,1.62
2023-05-02T11:41:33.924Z,1.95
2023-05-02T11:42:33.930Z,1.76
2023-05-02T11:43:34.250Z,1.93
2023-05-02T11:44:34.008Z,1.91
2023-05-02T11:45:34.050Z,2.49
2023-05-02T11:46:34.107Z,1.66
2023-05-02T11:47:34.145Z,2.10
2023-05-02T11:48:34.168Z,1.95
2023-05-02T11:49:34.252Z,3.20
2023-05-02T11:50:34.233Z,1.89
2023-05-02T11:51:34.297Z,1.93
2023-05-02T11:52:34.286Z,1.93
2023-05-02T11:53:34.764Z,1.91
2023-05-02T11:54:34.365Z,2.18
2023-05-02T11:55:34.397Z,1.75
2023-05-02T11:56:34.761Z,1.95
2023-05-02T11:57:34.503Z,2.12
2023-05-02T11:58:34.670Z,1.72
2023-05-02T11:59:34.539Z,1.68
2023-05-02T12:00:34.598Z,1.98
2023-05-02T12:01:34.776Z,1.86
2023-05-02T12:02:34.758Z,1.77
2023-05-02T12:03:34.993Z,2.06
2023-05-02T12:04:34.755Z,2.05
2023-05-02T12:05:34.823Z,2.03
2023-05-02T12:06:35.580Z,1.90
2023-05-02T12:07:35.260Z,2.60
2023-05-02T12:08:34.928Z,2.16
2023-05-02T12:09:34.950Z,2.17
2023-05-02T12:10:35.009Z,2.29
2023-05-02T12:11:35.278Z,1.99
2023-05-02T12:12:35.081Z,2.64
2023-05-02T12:13:35.161Z,2.48
2023-05-02T12:14:35.159Z,2.65
2023-05-02T12:15:35.198Z,2.59
2023-05-02T12:16:35.323Z,2.81
2023-05-02T12:17:35.399Z,2.08
2023-05-02T12:18:36.406Z,2.36
2023-05-02T12:19:35.355Z,2.30
2023-05-02T12:20:35.412Z,2.84
2023-05-02T12:21:35.439Z,2.97
2023-05-02T12:22:35.783Z,3.13
2023-05-02T12:23:37.446Z,2.93
2023-05-02T12:24:35.538Z,2.74
2023-05-02T12:25:35.796Z,2.51
2023-05-02T12:26:35.804Z,2.89
2023-05-02T12:27:35.535Z,3.13
2023-05-02T12:28:35.769Z,2.92
2023-05-02T12:29:35.892Z,2.87
2023-05-02T12:30:36.050Z,3.19
2023-05-02T12:31:36.274Z,2.58
2023-05-02T12:32:35.796Z,3.02
2023-05-02T12:33:35.491Z,3.18
2023-05-02T12:34:35.470Z,3.07
2023-05-02T12:35:35.772Z,3.01
2023-05-02T12:36:35.450Z,3.01
2023-05-02T12:37:35.452Z,2.96
2023-05-02T12:38:35.438Z,3.86
2023-05-02T12:39:35.452Z,2.97
2023-05-02T12:40:35.434Z,3.44
2023-05-02T12:41:35.432Z,3.07
2023-05-02T12:42:35.407Z,3.21
2023-05-02T12:43:36.629Z,3.10
2023-05-02T12:44:35.417Z,3.69
2023-05-02T12:45:35.440Z,3.05
2023-05-02T12:46:35.791Z,3.06
2023-05-02T12:47:35.519Z,3.07
2023-05-02T12:48:35.530Z,3.45
2023-05-02T12:49:35.776Z,3.42
2023-05-02T12:50:35.608Z,3.47
2023-05-02T12:51:35.639Z,3.14
2023-05-02T12:52:35.700Z,3.27
2023-05-02T12:53:35.780Z,3.02
2023-05-02T12:54:36.801Z,3.00
2023-05-02T12:55:35.831Z,2.99
2023-05-02T12:56:35.874Z,2.97
2023-05-02T12:57:35.980Z,3.01
2023-05-02T12:58:36.456Z,2.98
2023-05-02T12:59:36.375Z,3.42
2023-05-02T13:00:36.475Z,2.96
2023-05-02T13:01:36.886Z,2.74
2023-05-02T13:02:36.438Z,3.02
2023-05-02T13:03:36.436Z,3.02
2023-05-02T13:04:36.407Z,2.94
2023-05-02T13:05:36.373Z,3.26
2023-05-02T13:06:36.854Z,3.10
2023-05-02T13:07:36.384Z,2.73
2023-05-02T13:08:36.789Z,2.36
2023-05-02T13:09:36.441Z,3.16
2023-05-02T13:10:36.495Z,3.43
2023-05-02T13:11:36.550Z,2.93
2023-05-02T13:12:36.594Z,2.43
2023-05-02T13:13:36.649Z,2.69
2023-05-02T13:14:36.743Z,3.25
2023-05-02T13:15:36.753Z,3.14
2023-05-02T13:16:37.001Z,3.14
2023-05-02T13:17:36.952Z,2.86
2023-05-02T13:18:37.446Z,3.33